Terminal Aerodrome Forecast
Issued by NWS

Current Version | Previous Version | Text Only | Print | Product List | Glossary On
Versions: 1 2 3 4 5 6 7 8 9 10 11 12 13 14 15 16 17 18 19 20 21 22
000
FTUS43 KJKL 020500
TAFSME
TAF
KSME 020523Z 0206/0306 23005KT P6SM SCT050
     FM021300 22005KT P6SM SCT040 BKN250
     FM021900 24010G16KT P6SM VCTS BKN040CB
     FM030000 VRB03KT P6SM SCT050=

USA.gov is the U.S. government's official web portal to all federal, state and local government web resources and services.